Time;durP1;ratioP1;P1;durP2;ratioP2;P2;SDS_P1;SDS_P2;PMS_P1;PMS_P2;Temp;Humidity;BMP_temperature;BMP_pressure;BME280_temperature;BME280_humidity;BME280_pressure;Samples;Min_cycle;Max_cycle;Signal;HPM_P1;HPM_P2
2024/03/26 00:01:28;;;;;;;14.13;6.22;;;;;;;-2.14;100.00;97106.84;6110958;19;20011;-70
2024/03/26 00:03:28;;;;;;;9.07;4.78;;;;;;;-2.14;100.00;97102.22;6109620;19;20006;-70
2024/03/26 00:05:28;;;;;;;11.13;6.20;;;;;;;-2.15;100.00;97105.25;6109303;19;20253;-71
2024/03/26 00:07:28;;;;;;;12.60;5.80;;;;;;;-2.14;100.00;97101.44;6108271;19;20402;-71
2024/03/26 00:09:29;;;;;;;12.48;6.20;;;;;;;-2.20;100.00;97100.03;6105267;19;20364;-71
2024/03/26 00:11:29;;;;;;;15.27;6.25;;;;;;;-2.21;100.00;97098.44;6101686;19;20090;-70
2024/03/26 00:13:30;;;;;;;11.50;5.32;;;;;;;-2.21;100.00;97098.44;6101097;19;20002;-70
2024/03/26 00:15:30;;;;;;;13.90;5.55;;;;;;;-2.20;100.00;97100.81;6099997;19;20018;-71
2024/03/26 00:17:30;;;;;;;19.42;7.07;;;;;;;-2.18;100.00;97098.56;6099073;19;20006;-71
2024/03/26 00:19:30;;;;;;;14.52;6.22;;;;;;;-2.20;100.00;97100.81;6100883;19;20563;-71
2024/03/26 00:21:31;;;;;;;15.75;7.05;;;;;;;-2.19;100.00;97090.78;6100686;19;20002;-71
2024/03/26 00:23:31;;;;;;;18.08;6.93;;;;;;;-2.22;100.00;97097.66;6100970;19;20324;-71
2024/03/26 00:25:31;;;;;;;14.05;6.28;;;;;;;-2.21;100.00;97091.09;6101612;19;20014;-71
2024/03/26 00:27:32;;;;;;;16.60;6.38;;;;;;;-2.21;100.00;97090.31;6100457;19;20374;-71
2024/03/26 00:29:32;;;;;;;11.95;5.82;;;;;;;-2.22;100.00;97092.22;6101266;19;20503;-71
2024/03/26 00:31:35;;;;;;;16.48;6.70;;;;;;;-2.23;100.00;97098.78;6101245;19;20010;-70
2024/03/26 00:33:36;;;;;;;11.75;5.75;;;;;;;-2.27;100.00;97092.41;6101333;19;20478;-71
2024/03/26 00:35:36;;;;;;;11.23;5.20;;;;;;;-2.28;100.00;97083.50;6101688;19;20127;-71
2024/03/26 00:37:37;;;;;;;12.73;6.25;;;;;;;-2.28;100.00;97091.63;6099283;19;20010;-71
2024/03/26 00:39:37;;;;;;;14.40;6.47;;;;;;;-2.33;100.00;97086.38;6099644;19;20077;-71
2024/03/26 00:41:37;;;;;;;12.80;5.43;;;;;;;-2.38;100.00;97080.38;6101217;19;20468;-71
2024/03/26 00:43:38;;;;;;;13.32;6.20;;;;;;;-2.46;100.00;97082.00;6102186;19;20007;-70
2024/03/26 00:45:38;;;;;;;13.73;5.75;;;;;;;-2.52;100.00;97079.81;6101000;19;20025;-70
2024/03/26 00:47:38;;;;;;;13.05;5.80;;;;;;;-2.56;100.00;97079.69;6100753;19;20602;-71
2024/03/26 00:49:39;;;;;;;11.23;5.68;;;;;;;-2.64;100.00;97075.91;6100546;19;20006;-71
2024/03/26 00:52:05;;;;;;;15.18;6.38;;;;;;;-2.67;100.00;97073.03;6101762;19;20531;-71
2024/03/26 00:54:13;;;;;;;12.32;5.45;;;;;;;-2.70;100.00;97071.78;6100802;19;20019;-71
2024/03/26 00:56:13;;;;;;;9.25;5.35;;;;;;;-2.67;100.00;97075.75;6100115;19;20419;-71
2024/03/26 00:58:14;;;;;;;8.48;5.15;;;;;;;-2.73;100.00;97063.50;6099738;19;20014;-71
2024/03/26 01:00:15;;;;;;;9.70;5.60;;;;;;;-2.75;100.00;97057.63;6100241;19;20037;-71
2024/03/26 01:02:15;;;;;;;9.32;5.22;;;;;;;-2.72;100.00;97062.41;6099249;19;20397;-71
2024/03/26 01:04:15;;;;;;;13.00;5.88;;;;;;;-2.71;100.00;97062.06;6099071;19;20010;-71
2024/03/26 01:06:15;;;;;;;12.30;6.10;;;;;;;-2.74;100.00;97051.09;6099631;19;19995;-71
2024/03/26 01:08:16;;;;;;;11.95;5.38;;;;;;;-2.71;100.00;97053.16;6098754;19;20023;-71
2024/03/26 01:10:16;;;;;;;9.05;5.35;;;;;;;-2.65;100.00;97051.81;6105505;19;20060;-71
2024/03/26 01:12:16;;;;;;;16.67;6.45;;;;;;;-2.63;100.00;97044.19;6108179;19;20696;-71
2024/03/26 01:14:17;;;;;;;9.27;5.35;;;;;;;-2.61;100.00;97045.44;6107977;19;20066;-71
2024/03/26 01:16:17;;;;;;;8.38;5.22;;;;;;;-2.57;100.00;97037.44;6106395;19;20107;-71
2024/03/26 01:18:18;;;;;;;9.93;5.85;;;;;;;-2.57;100.00;97042.88;6106868;19;20010;-71
2024/03/26 01:20:18;;;;;;;10.43;6.05;;;;;;;-2.61;100.00;97036.53;6107585;19;20325;-71
2024/03/26 01:22:18;;;;;;;10.13;5.30;;;;;;;-2.64;100.00;97023.66;6108087;19;20007;-71
2024/03/26 01:24:19;;;;;;;9.65;6.22;;;;;;;-2.65;100.00;97024.75;6107451;19;20017;-71
2024/03/26 01:26:19;;;;;;;14.30;6.13;;;;;;;-2.70;100.00;97022.25;6107380;19;20006;-71
2024/03/26 01:28:19;;;;;;;11.48;5.90;;;;;;;-2.72;100.00;97024.50;6106452;19;20006;-71
2024/03/26 01:30:20;;;;;;;9.95;5.63;;;;;;;-2.75;100.00;97020.50;6107817;19;20019;-71
2024/03/26 01:32:21;;;;;;;10.75;5.50;;;;;;;-2.77;100.00;97021.97;6107740;19;22134;-71
2024/03/26 01:34:21;;;;;;;13.95;5.97;;;;;;;-2.84;100.00;97017.84;6107354;19;20018;-71
2024/03/26 01:36:21;;;;;;;10.95;5.90;;;;;;;-2.85;100.00;97021.69;6106217;19;20006;-71
2024/03/26 01:38:22;;;;;;;12.00;5.63;;;;;;;-2.92;100.00;97015.97;6107984;19;20649;-71
2024/03/26 01:40:26;;;;;;;13.45;5.40;;;;;;;-2.89;100.00;97011.84;6107475;19;20030;-71
2024/03/26 01:42:26;;;;;;;9.18;5.13;;;;;;;-2.91;100.00;97017.56;6107809;19;20105;-71
2024/03/26 01:44:26;;;;;;;10.68;5.50;;;;;;;-2.92;100.00;97007.88;6107906;19;20463;-70
2024/03/26 01:46:27;;;;;;;15.38;5.38;;;;;;;-2.93;100.00;97010.91;6107667;19;20017;-70
2024/03/26 01:48:27;;;;;;;13.80;6.15;;;;;;;-2.94;100.00;96999.28;6104942;19;20014;-70
2024/03/26 01:50:28;;;;;;;11.55;5.97;;;;;;;-2.94;100.00;97003.91;6107045;19;20011;-71
2024/03/26 01:52:30;;;;;;;13.43;5.30;;;;;;;-2.95;100.00;97000.41;6107534;19;20027;-71
2024/03/26 01:54:31;;;;;;;9.63;5.55;;;;;;;-2.94;100.00;96999.28;6108493;19;20123;-71
2024/03/26 01:56:32;;;;;;;8.63;4.95;;;;;;;-3.00;100.00;96992.47;6105921;19;20018;-71
2024/03/26 01:58:32;;;;;;;9.90;5.53;;;;;;;-3.05;100.00;96995.38;6106582;19;20015;-71
2024/03/26 02:00:33;;;;;;;9.85;5.78;;;;;;;-3.08;100.00;96996.00;6107415;19;20007;-70
2024/03/26 02:02:33;;;;;;;11.27;5.28;;;;;;;-3.06;100.00;97001.09;6105847;19;20019;-71
2024/03/26 02:04:34;;;;;;;10.57;5.97;;;;;;;-3.07;100.00;96986.75;6106296;19;20335;-71
2024/03/26 02:06:34;;;;;;;12.30;5.88;;;;;;;-3.12;100.00;96981.53;6106030;19;20389;-71
2024/03/26 02:08:35;;;;;;;13.75;5.18;;;;;;;-3.09;100.00;96980.88;6106220;19;20007;-71
2024/03/26 02:10:35;;;;;;;12.50;4.68;;;;;;;-3.11;100.00;96983.91;6106877;19;20010;-71
2024/03/26 02:12:36;;;;;;;12.77;5.40;;;;;;;-3.19;100.00;96976.63;6106455;19;20002;-70
2024/03/26 02:14:36;;;;;;;10.30;5.40;;;;;;;-3.20;100.00;96976.97;6106874;19;20336;-70
2024/03/26 02:16:36;;;;;;;12.30;5.70;;;;;;;-3.25;100.00;96975.22;6105671;19;20009;-70
2024/03/26 02:18:37;;;;;;;12.13;4.72;;;;;;;-3.26;100.00;96976.34;6107182;19;20010;-71
2024/03/26 02:20:37;;;;;;;10.98;4.97;;;;;;;-3.26;100.00;96976.34;6106557;19;19999;-71
2024/03/26 02:22:37;;;;;;;10.23;4.97;;;;;;;-3.31;100.00;96970.31;6107026;19;20514;-71
2024/03/26 02:24:38;;;;;;;9.30;4.85;;;;;;;-3.34;100.00;96965.56;6106969;19;20515;-70
2024/03/26 02:26:38;;;;;;;10.88;5.30;;;;;;;-3.29;100.00;96968.88;6104961;19;20010;-70
2024/03/26 02:28:38;;;;;;;11.52;5.70;;;;;;;-3.31;100.00;96979.25;6107553;19;20562;-70
2024/03/26 02:30:38;;;;;;;9.32;5.35;;;;;;;-3.30;100.00;96974.63;6107125;19;20002;-69
2024/03/26 02:32:39;;;;;;;10.70;4.38;;;;;;;-3.37;100.00;96967.03;6106080;19;20030;-70
2024/03/26 02:34:39;;;;;;;9.43;4.60;;;;;;;-3.40;100.00;96979.25;6106841;19;20026;-71
2024/03/26 02:36:39;;;;;;;9.13;4.47;;;;;;;-3.50;100.00;96970.72;6104503;19;20009;-70
2024/03/26 02:38:40;;;;;;;7.95;4.53;;;;;;;-3.57;100.00;96967.72;6106783;19;20451;-71
2024/03/26 02:40:40;;;;;;;10.35;4.80;;;;;;;-3.64;100.00;96954.72;6106950;19;20010;-71
2024/03/26 02:42:40;;;;;;;7.47;4.07;;;;;;;-3.64;100.00;96959.28;6105417;19;20013;-70
2024/03/26 02:44:41;;;;;;;12.40;5.43;;;;;;;-3.69;100.00;96955.66;6106872;19;19998;-71
2024/03/26 02:46:41;;;;;;;10.90;5.22;;;;;;;-3.76;100.00;96944.56;6104663;19;20003;-71
2024/03/26 02:48:41;;;;;;;10.88;4.78;;;;;;;-3.82;100.00;96942.34;6106055;19;20036;-71
2024/03/26 02:50:41;;;;;;;12.40;5.07;;;;;;;-3.83;100.00;96948.84;6105918;19;20010;-71
2024/03/26 02:52:42;;;;;;;8.07;4.43;;;;;;;-3.84;100.00;96941.88;6106310;19;20471;-71
2024/03/26 02:54:42;;;;;;;9.93;4.90;;;;;;;-3.84;100.00;96933.75;6106232;19;19998;-71
2024/03/26 02:56:42;;;;;;;10.07;5.40;;;;;;;-3.78;100.00;96932.50;6105206;19;20010;-71
2024/03/26 02:58:43;;;;;;;9.05;4.28;;;;;;;-3.60;100.00;96934.00;6106095;19;20015;-71
2024/03/26 03:00:43;;;;;;;13.13;5.28;;;;;;;-3.59;100.00;96924.78;6106241;19;20295;-71
2024/03/26 03:02:44;;;;;;;10.77;4.38;;;;;;;-3.50;100.00;96922.03;6105407;19;20010;-71
2024/03/26 03:04:44;;;;;;;7.32;4.50;;;;;;;-3.46;100.00;96912.97;6105591;19;20031;-71
2024/03/26 03:06:45;;;;;;;6.45;4.25;;;;;;;-3.42;100.00;96916.59;6104635;19;20328;-71
2024/03/26 03:08:45;;;;;;;15.55;4.95;;;;;;;-3.42;100.00;96902.28;6105320;19;20066;-70
2024/03/26 03:10:45;;;;;;;11.73;4.78;;;;;;;-3.40;100.00;96908.16;6104968;19;20011;-71
2024/03/26 03:12:46;;;;;;;16.33;5.45;;;;;;;-3.35;100.00;96902.56;6105952;19;20007;-71
2024/03/26 03:14:46;;;;;;;8.18;4.22;;;;;;;-3.35;100.00;96897.16;6105821;19;20369;-71
2024/03/26 03:16:46;;;;;;;7.65;4.20;;;;;;;-3.38;100.00;96889.72;6103164;19;20335;-71
2024/03/26 03:18:46;;;;;;;8.15;4.32;;;;;;;-3.43;100.00;96885.28;6106563;19;20041;-71
2024/03/26 03:20:47;;;;;;;10.68;4.60;;;;;;;-3.47;100.00;96884.34;6104399;19;20014;-71
2024/03/26 03:22:47;;;;;;;8.93;4.57;;;;;;;-3.47;100.00;96889.75;6105352;19;20635;-71
2024/03/26 03:24:47;;;;;;;9.40;4.45;;;;;;;-3.44;100.00;96882.91;6105224;19;20018;-71
2024/03/26 03:26:48;;;;;;;7.82;4.10;;;;;;;-3.44;100.00;96880.97;6107301;19;20002;-71
2024/03/26 03:28:48;;;;;;;8.70;3.97;;;;;;;-3.42;100.00;96878.75;6110167;19;20007;-71
2024/03/26 03:30:49;;;;;;;8.95;4.25;;;;;;;-3.44;100.00;96880.97;6110206;19;20401;-71
2024/03/26 03:32:49;;;;;;;8.27;4.50;;;;;;;-3.48;100.00;96880.03;6110656;19;20006;-71
2024/03/26 03:34:49;;;;;;;10.80;4.35;;;;;;;-3.48;100.00;96871.91;6111236;19;20502;-71
2024/03/26 03:36:50;;;;;;;10.27;4.38;;;;;;;-3.47;100.00;96876.25;6108566;19;20028;-71
2024/03/26 03:38:50;;;;;;;10.43;4.57;;;;;;;-3.50;100.00;96873.38;6111629;19;20459;-71
2024/03/26 03:40:50;;;;;;;10.68;4.60;;;;;;;-3.58;100.00;96869.59;6110580;19;20013;-71
2024/03/26 03:42:50;;;;;;;8.30;5.00;;;;;;;-3.64;100.00;96865.50;6110755;19;20005;-71
2024/03/26 03:44:51;;;;;;;8.55;4.47;;;;;;;-3.61;100.00;96869.47;6109938;19;20455;-71
2024/03/26 03:46:51;;;;;;;9.32;4.55;;;;;;;-3.67;100.00;96856.13;6109205;19;20002;-70
2024/03/26 03:48:51;;;;;;;8.43;3.75;;;;;;;-3.68;100.00;96854.53;6110679;19;20023;-71
2024/03/26 03:50:52;;;;;;;7.03;4.15;;;;;;;-3.71;100.00;96854.41;6110588;19;20459;-71
2024/03/26 03:52:52;;;;;;;8.13;4.30;;;;;;;-3.60;100.00;96858.31;6109974;19;20006;-71
2024/03/26 03:54:52;;;;;;;7.75;4.43;;;;;;;-3.63;100.00;96848.16;6110936;19;20074;-71
2024/03/26 03:56:53;;;;;;;9.80;4.93;;;;;;;-3.61;100.00;96851.31;6108017;19;20074;-70
2024/03/26 03:58:53;;;;;;;11.00;4.95;;;;;;;-3.62;100.00;96847.03;6111195;19;20381;-71
2024/03/26 04:00:53;;;;;;;10.38;4.07;;;;;;;-3.61;100.00;96831.63;6110475;19;20095;-71
2024/03/26 04:02:53;;;;;;;9.00;4.70;;;;;;;-3.55;100.00;96841.91;6110261;19;20070;-71
2024/03/26 04:04:54;;;;;;;8.50;4.40;;;;;;;-3.53;100.00;96839.69;6110843;19;20089;-71
2024/03/26 04:06:54;;;;;;;10.15;5.22;;;;;;;-3.51;100.00;96839.34;6108855;19;20010;-71
2024/03/26 04:08:54;;;;;;;11.93;4.78;;;;;;;-3.54;100.00;96829.97;6098559;19;20027;-71
2024/03/26 04:10:56;;;;;;;11.20;4.38;;;;;;;-3.54;100.00;96834.59;6110374;19;20432;-71
2024/03/26 04:12:56;;;;;;;7.60;3.22;;;;;;;-3.58;100.00;96829.03;6109874;19;20011;-71
2024/03/26 04:14:56;;;;;;;5.68;4.10;;;;;;;-3.56;100.00;96834.91;6109233;19;20022;-71
2024/03/26 04:16:57;;;;;;;9.45;4.40;;;;;;;-3.60;100.00;96823.16;6107695;19;20490;-71
2024/03/26 04:18:57;;;;;;;8.90;4.57;;;;;;;-3.61;100.00;96823.50;6109940;19;20018;-71
2024/03/26 04:20:57;;;;;;;17.33;4.85;;;;;;;-3.57;100.00;96825.22;6109511;19;20040;-71
2024/03/26 04:22:58;;;;;;;8.65;4.18;;;;;;;-3.56;100.00;96817.91;6109379;19;20014;-71
2024/03/26 04:24:58;;;;;;;7.20;4.10;;;;;;;-3.54;100.00;96811.06;6109100;19;20006;-71
2024/03/26 04:26:59;;;;;;;9.88;4.32;;;;;;;-3.50;100.00;96820.09;6108476;19;20022;-71
2024/03/26 04:28:59;;;;;;;10.57;4.85;;;;;;;-3.49;100.00;96816.25;6106946;19;20010;-71
2024/03/26 04:30:59;;;;;;;10.57;5.28;;;;;;;-3.47;100.00;96816.75;6107142;19;20002;-71
2024/03/26 04:32:59;;;;;;;10.10;4.72;;;;;;;-3.49;100.00;96818.97;6108012;19;20011;-71
2024/03/26 04:35:00;;;;;;;12.48;4.85;;;;;;;-3.48;100.00;96815.13;6108413;19;20003;-71
2024/03/26 04:37:03;;;;;;;9.80;5.00;;;;;;;-3.47;100.00;96816.75;6107289;19;20423;-71
2024/03/26 04:39:03;;;;;;;11.00;4.70;;;;;;;-3.50;100.00;96805.78;6107601;19;20466;-70
2024/03/26 04:41:03;;;;;;;6.32;3.78;;;;;;;-3.52;100.00;96811.53;6107911;19;20094;-71
2024/03/26 04:43:07;;;;;;;11.40;4.40;;;;;;;-3.52;100.00;96810.72;6108676;19;20006;-71
2024/03/26 04:45:08;;;;;;;6.28;4.00;;;;;;;-3.53;100.00;96801.03;6106577;19;20006;-71
2024/03/26 04:47:08;;;;;;;11.48;5.43;;;;;;;-3.54;100.00;96800.25;6107757;19;20002;-71
2024/03/26 04:49:09;;;;;;;7.97;4.13;;;;;;;-3.55;100.00;96801.38;6108812;19;20473;-71
2024/03/26 04:51:09;;;;;;;7.13;4.30;;;;;;;-3.52;100.00;96794.50;6108090;19;20555;-71
2024/03/26 04:53:09;;;;;;;10.43;4.53;;;;;;;-3.48;100.00;96800.81;6109703;19;20015;-71
2024/03/26 04:55:09;;;;;;;9.43;4.65;;;;;;;-3.47;100.00;96799.75;6107958;19;20014;-71
2024/03/26 04:57:10;;;;;;;7.03;4.00;;;;;;;-3.44;100.00;96794.44;6106537;19;20039;-71
2024/03/26 04:59:10;;;;;;;7.50;4.35;;;;;;;-3.47;100.00;96795.13;6107486;19;20018;-71
2024/03/26 05:01:11;;;;;;;9.35;4.75;;;;;;;-3.50;100.00;96798.47;6109569;19;20014;-71
2024/03/26 05:03:11;;;;;;;7.70;5.45;;;;;;;-3.51;100.00;96794.19;6108026;19;20045;-71
2024/03/26 05:05:11;;;;;;;10.65;4.53;;;;;;;-3.51;100.00;96791.47;6108327;19;20042;-71
2024/03/26 05:07:12;;;;;;;8.88;4.80;;;;;;;-3.52;100.00;96789.88;6107370;19;20002;-71
2024/03/26 05:09:12;;;;;;;10.48;4.25;;;;;;;-3.56;100.00;96774.63;6104978;19;20371;-71
2024/03/26 05:11:12;;;;;;;8.55;4.45;;;;;;;-3.52;100.00;96781.78;6099019;19;20010;-71
2024/03/26 05:13:13;;;;;;;12.45;4.32;;;;;;;-3.52;100.00;96776.38;6101231;19;20010;-71
2024/03/26 05:15:14;;;;;;;7.03;4.80;;;;;;;-3.52;100.00;96779.06;6099428;19;20037;-71
2024/03/26 05:17:14;;;;;;;14.32;5.00;;;;;;;-3.51;100.00;96772.53;6099969;19;20070;-71
2024/03/26 05:19:15;;;;;;;12.32;4.35;;;;;;;-3.47;100.00;96773.50;6100176;19;20363;-71
2024/03/26 05:21:15;;;;;;;7.40;3.95;;;;;;;-3.40;100.00;96776.44;6097110;19;20035;-71
2024/03/26 05:23:15;;;;;;;7.20;4.57;;;;;;;-3.37;100.00;96775.00;6100020;19;20003;-71
2024/03/26 05:25:16;;;;;;;13.48;4.75;;;;;;;-3.28;100.00;96769.53;6099293;19;20217;-71
2024/03/26 05:27:16;;;;;;;8.50;4.07;;;;;;;-3.26;100.00;96770.00;6098107;19;20007;-71
2024/03/26 05:29:18;;;;;;;8.07;4.25;;;;;;;-3.22;100.00;96773.63;6099527;19;20318;-70
2024/03/26 05:31:19;;;;;;;7.00;4.25;;;;;;;-3.18;100.00;96766.44;6099226;19;20006;-70
2024/03/26 05:33:20;;;;;;;5.88;4.10;;;;;;;-3.09;100.00;96763.66;6100238;19;20017;-71
2024/03/26 05:35:20;;;;;;;9.73;4.07;;;;;;;-2.99;100.00;96761.31;6099182;19;20191;-71
2024/03/26 05:37:20;;;;;;;7.07;4.40;;;;;;;-2.91;100.00;96755.03;6097859;19;20010;-71
2024/03/26 05:39:21;;;;;;;7.45;4.45;;;;;;;-2.82;100.00;96753.06;6100118;19;20015;-71
2024/03/26 05:41:21;;;;;;;6.50;3.80;;;;;;;-2.60;100.00;96756.50;6099678;19;20030;-71
2024/03/26 05:43:21;;;;;;;7.70;4.20;;;;;;;-2.53;100.00;96751.34;6100100;19;20792;-71
2024/03/26 05:45:23;;;;;;;6.75;4.13;;;;;;;-2.47;100.00;96751.94;6099604;19;20098;-71
2024/03/26 05:47:23;;;;;;;7.17;3.47;;;;;;;-2.37;100.00;96756.91;6098163;19;20010;-70
2024/03/26 05:49:23;;;;;;;5.80;3.78;;;;;;;-2.36;100.00;96750.38;6097304;19;20937;-71
2024/03/26 05:51:24;;;;;;;8.50;4.13;;;;;;;-2.34;100.00;96754.31;6099161;19;20010;-71
2024/03/26 05:53:25;;;;;;;8.88;3.88;;;;;;;-2.30;100.00;96754.44;6099743;19;20187;-71
2024/03/26 05:55:25;;;;;;;6.22;4.10;;;;;;;-2.30;100.00;96754.44;6099088;19;20013;-70
2024/03/26 05:57:25;;;;;;;6.57;3.72;;;;;;;-2.29;100.00;96750.59;6098882;19;20010;-70
2024/03/26 05:59:26;;;;;;;6.20;3.88;;;;;;;-2.28;100.00;96750.28;6100360;19;20011;-70
2024/03/26 06:01:26;;;;;;;9.68;4.88;;;;;;;-2.21;100.00;96755.13;6101109;19;20543;-70
2024/03/26 06:03:27;;;;;;;8.02;3.90;;;;;;;-2.14;100.00;96755.38;6099644;19;20007;-70
2024/03/26 06:05:27;;;;;;;9.20;4.13;;;;;;;-2.07;100.00;96752.91;6098894;19;20069;-70
2024/03/26 06:07:27;;;;;;;6.90;4.55;;;;;;;-2.01;100.00;96756.16;6099526;19;20495;-70
2024/03/26 06:09:28;;;;;;;8.80;4.15;;;;;;;-1.95;100.00;96740.47;6098939;19;20013;-71
2024/03/26 06:11:29;;;;;;;8.35;4.20;;;;;;;-1.86;100.00;96752.78;6106588;19;20394;-70
2024/03/26 06:13:29;;;;;;;7.28;3.88;;;;;;;-1.85;100.00;96734.59;6107934;19;20020;-70
2024/03/26 06:15:30;;;;;;;7.28;4.25;;;;;;;-1.77;100.00;96739.91;6105905;19;20003;-70
2024/03/26 06:17:30;;;;;;;12.02;4.57;;;;;;;-1.70;100.00;96748.25;6104665;19;20100;-70
2024/03/26 06:19:30;;;;;;;8.23;4.35;;;;;;;-1.65;100.00;96738.31;6104422;19;20003;-70
2024/03/26 06:21:30;;;;;;;6.07;3.63;;;;;;;-1.60;100.00;96738.88;6106215;19;20002;-70
2024/03/26 06:23:32;;;;;;;8.02;4.35;;;;;;;-1.53;100.00;96744.50;6106056;19;20372;-70
2024/03/26 06:25:32;;;;;;;7.97;4.20;;;;;;;-1.46;100.00;96741.22;6103198;19;20007;-70
2024/03/26 06:27:32;;;;;;;7.00;4.10;;;;;;;-1.37;100.00;96735.66;6104424;19;20007;-70
2024/03/26 06:29:33;;;;;;;10.10;4.93;;;;;;;-1.32;100.00;96741.66;6105829;19;20366;-70
2024/03/26 06:31:33;;;;;;;7.70;4.22;;;;;;;-1.20;100.00;96747.03;6105753;19;20062;-70
2024/03/26 06:33:33;;;;;;;8.55;4.10;;;;;;;-1.14;100.00;96742.97;6108024;19;20009;-70
2024/03/26 06:35:34;;;;;;;6.65;4.28;;;;;;;-1.08;100.00;96745.41;6106622;19;20018;-70
2024/03/26 06:37:34;;;;;;;6.97;4.00;;;;;;;-1.06;100.00;96743.97;6105225;19;20010;-70
2024/03/26 06:39:34;;;;;;;7.70;3.97;;;;;;;-1.06;100.00;96743.16;6106435;19;20045;-70
2024/03/26 06:41:34;;;;;;;6.22;3.83;;;;;;;-1.01;100.00;96737.47;6105301;19;20018;-71
2024/03/26 06:43:35;;;;;;;6.28;3.72;;;;;;;-0.97;100.00;96732.97;6104064;19;20478;-70
2024/03/26 06:45:35;;;;;;;5.20;3.75;;;;;;;-0.92;100.00;96736.19;6105096;19;20020;-70
2024/03/26 06:47:35;;;;;;;6.63;4.25;;;;;;;-0.90;100.00;96727.72;6103432;19;20011;-70
2024/03/26 06:49:36;;;;;;;11.85;5.70;;;;;;;-0.81;100.00;96728.38;6104231;19;20468;-71
2024/03/26 06:51:36;;;;;;;10.57;6.60;;;;;;;-0.70;100.00;96734.06;6104514;19;20011;-71
2024/03/26 06:53:37;;;;;;;10.77;6.60;;;;;;;-0.64;100.00;96724.56;6104679;19;20499;-71
2024/03/26 06:55:37;;;;;;;9.80;5.13;;;;;;;-0.57;100.00;96720.09;6104667;19;20786;-71
2024/03/26 06:57:38;;;;;;;10.00;4.82;;;;;;;-0.52;100.00;96726.41;6105555;19;20015;-71
2024/03/26 06:59:38;;;;;;;7.00;4.63;;;;;;;-0.46;100.00;96722.28;6107328;19;20301;-71
2024/03/26 07:01:39;;;;;;;7.32;4.53;;;;;;;-0.41;100.00;96732.91;6109237;19;20019;-71
2024/03/26 07:03:39;;;;;;;9.93;5.60;;;;;;;-0.36;100.00;96719.84;6112969;19;20033;-71
2024/03/26 07:05:40;;;;;;;8.77;5.03;;;;;;;-0.29;100.00;96722.75;6112500;19;20010;-71
2024/03/26 07:07:40;;;;;;;11.27;5.03;;;;;;;-0.24;100.00;96716.28;6110139;19;20066;-71
2024/03/26 07:09:41;;;;;;;9.98;5.18;;;;;;;-0.18;100.00;96720.28;6112334;19;20007;-71
2024/03/26 07:11:42;;;;;;;8.90;5.25;;;;;;;-0.08;100.00;96719.00;6112156;19;20006;-71
2024/03/26 07:13:42;;;;;;;7.93;5.55;;;;;;;0.04;100.00;96713.44;6112544;19;20007;-71
2024/03/26 07:15:43;;;;;;;9.30;5.00;;;;;;;0.16;100.00;96715.28;6111791;19;20010;-71
2024/03/26 07:17:43;;;;;;;7.47;4.85;;;;;;;0.24;100.00;96712.38;6110859;19;20062;-71
2024/03/26 07:19:44;;;;;;;9.13;5.03;;;;;;;0.32;100.00;96710.59;6113498;19;20007;-71
2024/03/26 07:21:45;;;;;;;8.73;4.88;;;;;;;0.39;100.00;96694.44;6112795;19;20212;-71
2024/03/26 07:23:45;;;;;;;11.32;6.70;;;;;;;0.52;100.00;96698.63;6111330;19;20021;-71
2024/03/26 07:25:48;;;;;;;11.52;6.78;;;;;;;0.65;100.00;96693.84;6112356;19;20448;-71
2024/03/26 07:27:49;;;;;;;7.50;4.75;;;;;;;0.72;100.00;96688.53;6111370;19;20258;-71
2024/03/26 07:29:49;;;;;;;8.27;5.05;;;;;;;0.84;100.00;96682.97;6112043;19;20800;-71
2024/03/26 07:31:49;;;;;;;11.02;5.50;;;;;;;0.93;100.00;96682.75;6111561;19;20856;-71
2024/03/26 07:33:50;;;;;;;7.60;4.80;;;;;;;1.02;100.00;96677.09;6112745;19;20006;-71
2024/03/26 07:35:51;;;;;;;11.90;5.97;;;;;;;1.14;100.00;96676.94;6111465;19;20014;-71
2024/03/26 07:37:52;;;;;;;10.10;5.70;;;;;;;1.22;100.00;96673.19;6109290;19;20011;-71
2024/03/26 07:39:53;;;;;;;8.93;5.63;;;;;;;1.33;100.00;96679.66;6111593;19;20014;-71
2024/03/26 07:41:53;;;;;;;9.32;5.85;;;;;;;1.41;100.00;96677.84;6111168;19;20007;-71
2024/03/26 07:43:54;;;;;;;11.07;5.20;;;;;;;1.52;100.00;96678.03;6111147;19;20467;-71
2024/03/26 07:45:54;;;;;;;10.30;5.88;;;;;;;1.66;100.00;96673.63;6111095;19;20003;-71
2024/03/26 07:47:54;;;;;;;9.73;5.75;;;;;;;1.72;100.00;96667.84;6109600;19;20335;-71
2024/03/26 07:49:55;;;;;;;8.70;4.75;;;;;;;1.78;100.00;96666.41;6110689;19;20359;-71
2024/03/26 07:51:55;;;;;;;8.13;5.20;;;;;;;1.82;100.00;96668.03;6111457;19;20703;-70
2024/03/26 07:53:55;;;;;;;7.57;4.60;;;;;;;1.89;100.00;96667.34;6110760;19;20002;-71
2024/03/26 07:55:56;;;;;;;8.80;5.18;;;;;;;1.98;100.00;96662.41;6111457;19;20003;-71
2024/03/26 07:57:56;;;;;;;10.70;5.32;;;;;;;2.09;100.00;96662.59;6109470;19;20581;-71
2024/03/26 07:59:57;;;;;;;9.35;5.13;;;;;;;2.24;100.00;96664.41;6110630;19;20028;-71
2024/03/26 08:01:57;;;;;;;7.30;4.03;;;;;;;2.32;100.00;96663.34;6111371;19;20035;-70
2024/03/26 08:03:57;;;;;;;5.57;3.90;;;;;;;2.37;100.00;96663.00;6111295;19;20006;-70
2024/03/26 08:05:58;;;;;;;6.32;4.65;;;;;;;2.46;100.00;96660.00;6110044;19;20036;-70
2024/03/26 08:07:58;;;;;;;7.50;4.57;;;;;;;2.53;100.00;96660.91;6109416;19;20028;-70
2024/03/26 08:09:59;;;;;;;7.00;4.65;;;;;;;2.65;100.00;96668.09;6110780;19;20003;-70
2024/03/26 08:11:59;;;;;;;5.97;3.72;;;;;;;2.62;100.00;96655.16;6110165;19;20026;-70
2024/03/26 08:14:00;;;;;;;6.65;4.05;;;;;;;2.65;100.00;96659.09;6110219;19;20054;-70
2024/03/26 08:16:00;;;;;;;8.38;4.80;;;;;;;2.68;100.00;96658.38;6110396;19;20006;-70
2024/03/26 08:18:02;;;;;;;9.05;5.95;;;;;;;2.73;100.00;96644.38;6109432;19;20106;-70
2024/03/26 08:20:05;;;;;;;8.02;5.00;;;;;;;2.81;100.00;96651.50;6110850;19;20347;-70
2024/03/26 08:22:06;;;;;;;6.90;4.47;;;;;;;2.87;100.00;96644.56;6110026;19;20018;-70
2024/03/26 08:24:06;;;;;;;5.82;4.13;;;;;;;2.90;100.00;96643.81;6110164;19;20415;-70
2024/03/26 08:26:07;;;;;;;10.25;4.90;;;;;;;3.00;100.00;96634.97;6109805;19;20058;-70
2024/03/26 08:28:07;;;;;;;6.90;4.82;;;;;;;3.13;100.00;96630.00;6109766;19;20003;-70
2024/03/26 08:30:10;;;;;;;8.98;4.13;;;;;;;3.29;100.00;96627.06;6110087;19;20007;-71
2024/03/26 08:32:10;;;;;;;6.85;4.03;;;;;;;3.38;100.00;96613.88;6110381;19;19998;-70
2024/03/26 08:34:11;;;;;;;5.55;3.90;;;;;;;3.49;100.00;96614.78;6110010;19;20527;-70
2024/03/26 08:36:11;;;;;;;7.75;3.50;;;;;;;3.66;100.00;96621.56;6108260;19;20039;-71
2024/03/26 08:38:12;;;;;;;6.18;3.42;;;;;;;3.75;100.00;96610.31;6110088;19;20002;-70
2024/03/26 08:40:12;;;;;;;10.18;3.92;;;;;;;3.87;100.00;96610.78;6109724;19;20003;-70
2024/03/26 08:42:12;;;;;;;6.97;4.28;;;;;;;4.00;100.00;96608.53;6109391;19;20003;-70
2024/03/26 08:44:13;;;;;;;6.90;4.03;;;;;;;4.08;100.00;96601.16;6111442;19;20451;-70
2024/03/26 08:46:13;;;;;;;6.53;3.67;;;;;;;4.23;100.00;96602.84;6108229;19;19999;-70
2024/03/26 08:48:13;;;;;;;6.50;3.63;;;;;;;4.38;100.00;96603.69;6109200;19;20003;-70
2024/03/26 08:50:14;;;;;;;5.78;3.47;;;;;;;4.40;100.00;96602.16;6109918;19;20010;-70
2024/03/26 08:52:14;;;;;;;5.20;3.50;;;;;;;4.51;100.00;96602.19;6109361;19;20030;-70
2024/03/26 08:54:14;;;;;;;5.53;3.33;;;;;;;4.56;100.00;96596.38;6109622;19;20007;-71
2024/03/26 08:56:15;;;;;;;5.85;3.60;;;;;;;4.61;100.00;96595.19;6109103;19;20356;-70
2024/03/26 08:58:16;;;;;;;4.80;3.30;;;;;;;4.70;100.00;96590.94;6108393;19;20003;-70
2024/03/26 09:00:17;;;;;;;6.07;4.20;;;;;;;4.86;100.00;96598.03;6109959;19;20346;-70
2024/03/26 09:02:17;;;;;;;5.70;4.05;;;;;;;5.06;100.00;96596.56;6109838;19;20011;-71
2024/03/26 09:04:17;;;;;;;4.75;3.25;;;;;;;5.25;100.00;96596.19;6109696;19;20451;-71
2024/03/26 09:06:17;;;;;;;3.78;3.17;;;;;;;5.39;100.00;96589.97;6109363;19;20010;-70
2024/03/26 09:08:18;;;;;;;3.67;2.90;;;;;;;5.51;100.00;96594.28;6108515;19;20030;-71
2024/03/26 09:10:19;;;;;;;3.95;3.00;;;;;;;5.61;100.00;96586.06;6099622;19;20006;-71
2024/03/26 09:12:19;;;;;;;6.32;2.70;;;;;;;5.70;100.00;96585.66;6109053;19;20014;-71
2024/03/26 09:14:19;;;;;;;5.93;3.13;;;;;;;5.74;100.00;96589.19;6108997;19;19995;-70
2024/03/26 09:16:20;;;;;;;4.93;2.75;;;;;;;5.77;100.00;96585.66;6108223;19;19999;-70
2024/03/26 09:18:20;;;;;;;5.35;2.90;;;;;;;5.90;100.00;96589.63;6107963;19;20010;-71
2024/03/26 09:20:20;;;;;;;6.13;3.38;;;;;;;6.01;100.00;96578.63;6109884;19;20044;-71